createdAt,value
2022-12-22T00:02:36.691Z,99144.06
2022-12-22T00:05:34.982Z,99150.22
2022-12-22T00:08:22.105Z,99139.81
2022-12-22T00:11:09.473Z,99136.31
2022-12-22T00:14:00.333Z,99132.88
2022-12-22T00:16:51.691Z,99129.44
2022-12-22T00:19:45.326Z,99125.94
2022-12-22T00:22:33.558Z,99123.34
2022-12-22T00:25:21.020Z,99118.13
2022-12-22T00:28:08.672Z,99112.94
2022-12-22T00:30:56.441Z,99105.09
2022-12-22T00:33:43.991Z,99097.25
2022-12-22T00:36:35.809Z,99092.94
2022-12-22T00:39:30.705Z,99092.94
2022-12-22T00:42:19.343Z,99093.81
2022-12-22T00:45:07.061Z,99089.47
2022-12-22T00:47:54.537Z,99092.06
2022-12-22T00:50:46.215Z,99085.97
2022-12-22T00:53:34.907Z,99086.00
2022-12-22T00:56:23.115Z,99074.66
2022-12-22T00:59:17.426Z,99068.59
2022-12-22T01:02:05.372Z,99072.09
2022-12-22T01:04:52.946Z,99063.38
2022-12-22T01:07:43.610Z,99057.28
2022-12-22T01:10:35.980Z,99056.41
2022-12-22T01:13:29.305Z,99041.66
2022-12-22T01:16:17.227Z,99040.78
2022-12-22T01:19:04.961Z,99029.47
2022-12-22T01:21:52.802Z,99032.09
2022-12-22T01:24:40.379Z,99025.97
2022-12-22T01:27:35.333Z,99021.66
2022-12-22T01:30:23.609Z,99016.44
2022-12-22T01:33:11.212Z,99012.09
2022-12-22T01:35:58.741Z,99002.53
2022-12-22T01:38:47.685Z,99001.63
2022-12-22T01:41:39.685Z,99002.53
2022-12-22T01:44:34.891Z,99002.53
2022-12-22T01:47:50.256Z,98980.78
2022-12-22T01:50:42.947Z,98986.91
2022-12-22T01:53:36.656Z,98974.72
2022-12-22T01:56:25.253Z,98990.38
2022-12-22T01:59:13.727Z,98982.56
2022-12-22T02:02:03.315Z,98965.16
2022-12-22T02:04:53.929Z,98969.50
2022-12-22T02:08:00.337Z,98966.06
2022-12-22T02:11:09.148Z,98964.31
2022-12-22T02:14:05.648Z,98959.97
2022-12-22T02:16:59.382Z,98953.03
2022-12-22T02:20:09.720Z,98951.28
2022-12-22T02:23:12.907Z,98948.69
2022-12-22T02:26:09.624Z,98935.63
2022-12-22T02:28:59.092Z,98922.59
2022-12-22T02:31:53.514Z,98911.28
2022-12-22T02:34:47.323Z,98915.63
2022-12-22T02:37:44.632Z,98909.56
2022-12-22T02:40:41.849Z,98901.72
2022-12-22T02:43:43.225Z,98901.72
2022-12-22T02:46:41.780Z,98896.50
2022-12-22T02:49:34.718Z,98887.81
2022-12-22T02:52:29.075Z,98893.06
2022-12-22T02:55:18.298Z,98886.06
2022-12-22T02:58:08.991Z,98889.56
2022-12-22T03:00:56.210Z,98884.34
2022-12-22T03:03:46.135Z,98882.63
2022-12-22T03:06:33.975Z,98879.13
2022-12-22T03:09:21.282Z,98868.69
2022-12-22T03:12:08.014Z,98873.94
2022-12-22T03:14:58.403Z,98862.59
2022-12-22T03:17:48.943Z,98861.75
2022-12-22T03:20:37.870Z,98860.88
2022-12-22T03:23:24.900Z,98857.41
2022-12-22T03:25:54.481Z,98853.94
2022-12-22T03:28:28.472Z,98852.22
2022-12-22T03:31:01.842Z,98846.09
2022-12-22T03:33:33.496Z,98838.25
2022-12-22T03:36:04.286Z,98840.03
2022-12-22T03:38:33.799Z,98826.97
2022-12-22T03:41:06.712Z,98826.09
2022-12-22T03:43:53.347Z,98828.72
2022-12-22T03:46:32.953Z,98820.88
2022-12-22T03:49:13.706Z,98820.03
2022-12-22T03:51:48.548Z,98814.78
2022-12-22T03:54:20.850Z,98819.16
2022-12-22T03:56:53.716Z,98807.84
2022-12-22T03:59:24.048Z,98806.94
2022-12-22T04:01:54.949Z,98797.41
2022-12-22T04:04:25.820Z,98804.34
2022-12-22T04:06:59.102Z,98800.00
2022-12-22T04:09:30.214Z,98797.38
2022-12-22T04:12:17.211Z,98800.00
2022-12-22T04:14:49.632Z,98792.19
2022-12-22T04:17:20.158Z,98798.28
2022-12-22T04:19:49.089Z,98786.97
2022-12-22T04:22:20.687Z,98784.34
2022-12-22T04:24:50.627Z,98783.47
2022-12-22T04:27:21.454Z,98784.34
2022-12-22T04:29:55.851Z,98783.50
2022-12-22T04:32:27.596Z,98772.16
2022-12-22T04:34:57.728Z,98772.16
2022-12-22T04:37:31.861Z,98765.19
2022-12-22T04:40:02.086Z,98766.97
2022-12-22T04:42:31.506Z,98758.22
2022-12-22T04:45:02.395Z,98755.63
2022-12-22T04:47:32.490Z,98758.22
2022-12-22T04:50:02.235Z,98752.16
2022-12-22T04:52:36.890Z,98762.63
2022-12-22T04:55:07.791Z,98759.13
2022-12-22T04:57:40.755Z,98755.66
2022-12-22T05:00:12.064Z,98748.66
2022-12-22T05:02:43.774Z,98754.78
2022-12-22T05:05:13.109Z,98748.66
2022-12-22T05:07:44.828Z,98747.81
2022-12-22T05:10:14.360Z,98748.66
2022-12-22T05:12:57.785Z,98753.91
2022-12-22T05:15:30.027Z,98750.41
2022-12-22T05:18:01.492Z,98755.63
2022-12-22T05:20:31.498Z,98749.56
2022-12-22T05:23:06.168Z,98749.56
2022-12-22T05:25:36.831Z,98747.81
2022-12-22T05:28:06.975Z,98742.59
2022-12-22T05:30:36.280Z,98746.94
2022-12-22T05:33:05.189Z,98744.31
2022-12-22T05:35:34.885Z,98738.22
2022-12-22T05:38:09.677Z,98743.47
2022-12-22T05:40:42.227Z,98733.88
2022-12-22T05:43:17.220Z,98739.13
2022-12-22T05:45:53.833Z,98745.25
2022-12-22T05:48:28.519Z,98742.63
2022-12-22T05:51:02.422Z,98754.81
2022-12-22T05:53:35.000Z,98748.75
2022-12-22T05:56:04.805Z,98746.97
2022-12-22T05:58:34.500Z,98752.19
2022-12-22T06:01:04.296Z,98746.97
2022-12-22T06:03:34.443Z,98748.75
2022-12-22T06:06:05.365Z,98749.59
2022-12-22T06:08:35.688Z,98745.25
2022-12-22T06:11:05.234Z,98748.75
2022-12-22T06:13:38.108Z,98748.72
2022-12-22T06:16:11.188Z,98754.88
2022-12-22T06:18:41.527Z,98756.59
2022-12-22T06:21:10.406Z,98756.59
2022-12-22T06:23:44.249Z,98759.22
2022-12-22T06:26:13.342Z,98757.47
2022-12-22T06:28:43.021Z,98757.47
2022-12-22T06:31:12.540Z,98754.84
2022-12-22T06:33:42.774Z,98755.72
2022-12-22T06:36:13.085Z,98760.06
2022-12-22T06:38:45.207Z,98766.16
2022-12-22T06:41:14.938Z,98769.66
2022-12-22T06:43:43.796Z,98770.53
2022-12-22T06:46:13.370Z,98768.78
2022-12-22T06:48:42.999Z,98772.28
2022-12-22T06:51:13.223Z,98780.13
2022-12-22T06:53:43.943Z,98780.09
2022-12-22T06:56:15.283Z,98780.09
2022-12-22T06:58:45.571Z,98792.28
2022-12-22T07:01:15.698Z,98788.78
2022-12-22T07:03:45.122Z,98790.53
2022-12-22T07:06:14.900Z,98797.50
2022-12-22T07:08:46.824Z,98791.38
2022-12-22T07:11:20.880Z,98806.22
2022-12-22T07:13:51.375Z,98804.47
2022-12-22T07:16:25.205Z,98814.97
2022-12-22T07:18:54.706Z,98819.31
2022-12-22T07:21:27.173Z,98821.03
2022-12-22T07:23:58.495Z,98835.84
2022-12-22T07:26:28.437Z,98832.38
2022-12-22T07:29:01.066Z,98834.13
2022-12-22T07:31:31.257Z,98835.88
2022-12-22T07:34:00.832Z,98842.00
2022-12-22T07:36:30.454Z,98857.69
2022-12-22T07:39:01.877Z,98857.69
2022-12-22T07:41:48.000Z,98869.03
2022-12-22T07:44:16.868Z,98878.66
2022-12-22T07:46:45.701Z,98885.63
2022-12-22T07:49:32.675Z,98891.75
2022-12-22T07:52:06.508Z,98896.97
2022-12-22T07:54:41.659Z,98906.56
2022-12-22T07:57:11.443Z,98902.22
2022-12-22T07:59:41.301Z,98910.94
2022-12-22T08:02:16.399Z,98912.66
2022-12-22T08:04:49.919Z,98914.41
2022-12-22T08:07:19.663Z,98913.50
2022-12-22T08:09:50.008Z,98916.13
2022-12-22T08:12:22.524Z,98917.88
2022-12-22T08:14:52.245Z,98930.06
2022-12-22T08:17:21.096Z,98930.94
2022-12-22T08:19:50.159Z,98932.66
2022-12-22T08:22:24.123Z,98935.25
2022-12-22T08:24:55.700Z,98941.34
2022-12-22T08:27:29.062Z,98952.66
2022-12-22T08:30:02.522Z,98950.91
2022-12-22T08:32:32.541Z,98957.03
2022-12-22T08:35:02.299Z,98982.28
2022-12-22T08:37:36.110Z,98983.16
2022-12-22T08:40:13.123Z,98985.75
2022-12-22T08:42:44.625Z,98994.47
2022-12-22T08:45:14.273Z,99010.16
2022-12-22T08:47:43.759Z,99020.63
2022-12-22T08:50:14.096Z,99021.47
2022-12-22T08:52:43.525Z,99020.59
2022-12-22T08:55:14.406Z,99024.06
2022-12-22T08:57:43.639Z,99030.19
2022-12-22T09:00:14.425Z,99039.75
2022-12-22T09:02:45.140Z,99040.63
2022-12-22T09:05:15.008Z,99037.13
2022-12-22T09:07:47.361Z,99038.00
2022-12-22T09:10:18.148Z,99046.69
2022-12-22T09:12:48.497Z,99037.13
2022-12-22T09:15:19.203Z,99040.59
2022-12-22T09:17:48.682Z,99056.28
2022-12-22T09:20:17.995Z,99055.41
2022-12-22T09:22:48.539Z,99065.88
2022-12-22T09:25:19.624Z,99071.09
2022-12-22T09:27:49.441Z,99080.69
2022-12-22T09:30:19.550Z,99084.19
2022-12-22T09:32:49.119Z,99092.91
2022-12-22T09:35:19.285Z,99099.03
2022-12-22T09:37:50.044Z,99099.06
2022-12-22T09:40:22.237Z,99105.16
2022-12-22T09:42:51.781Z,99105.16
2022-12-22T09:45:21.373Z,99110.41
2022-12-22T09:47:54.051Z,99117.41
2022-12-22T09:50:26.879Z,99128.75
2022-12-22T09:52:59.926Z,99134.84
2022-12-22T09:55:41.369Z,99128.75
2022-12-22T09:58:25.810Z,99133.97
2022-12-22T10:01:05.019Z,99141.78
2022-12-22T10:03:41.718Z,99141.78
2022-12-22T10:06:16.278Z,99154.00
2022-12-22T10:08:45.573Z,99166.16
2022-12-22T10:11:20.989Z,99170.47
2022-12-22T10:13:50.507Z,99171.28
2022-12-22T10:16:22.561Z,99166.03
2022-12-22T10:19:07.413Z,99179.97
2022-12-22T10:21:46.442Z,99178.19
2022-12-22T10:24:18.553Z,99179.94
2022-12-22T10:27:04.971Z,99179.03
2022-12-22T10:29:38.071Z,99174.66
2022-12-22T10:32:16.588Z,99182.47
2022-12-22T10:35:02.634Z,99174.63
2022-12-22T10:37:34.444Z,99184.25
2022-12-22T10:40:19.112Z,99175.53
2022-12-22T10:42:55.102Z,99189.47
2022-12-22T10:45:29.441Z,99193.84
2022-12-22T10:47:59.607Z,99203.38
2022-12-22T10:50:29.921Z,99206.88
2022-12-22T10:52:59.913Z,99199.94
2022-12-22T10:55:32.870Z,99203.44
2022-12-22T10:58:18.676Z,99201.72
2022-12-22T11:01:05.898Z,99211.34
2022-12-22T11:03:35.603Z,99212.25
2022-12-22T11:06:13.763Z,99216.59
2022-12-22T11:08:51.454Z,99238.41
2022-12-22T11:11:36.766Z,99236.69
2022-12-22T11:14:15.966Z,99247.16
2022-12-22T11:16:51.866Z,99240.16
2022-12-22T11:19:54.092Z,99251.53
2022-12-22T11:22:35.532Z,99243.69
2022-12-22T11:25:23.599Z,99246.34
2022-12-22T11:28:06.327Z,99250.72
2022-12-22T11:30:47.103Z,99259.47
2022-12-22T11:33:44.967Z,99262.13
2022-12-22T11:36:25.809Z,99267.38
2022-12-22T11:39:05.932Z,99270.84
2022-12-22T11:41:53.124Z,99265.59
2022-12-22T11:44:42.140Z,99271.69
2022-12-22T11:47:23.427Z,99271.69
2022-12-22T11:50:58.466Z,99269.13
2022-12-22T11:53:21.282Z,99276.16
2022-12-22T11:56:06.756Z,99274.41
2022-12-22T11:58:54.439Z,99281.34
2022-12-22T12:01:51.349Z,99284.81
2022-12-22T12:04:57.656Z,99289.13
2022-12-22T12:07:31.613Z,99289.09
2022-12-22T12:10:18.228Z,99294.28
2022-12-22T12:12:58.367Z,99308.25
2022-12-22T12:15:33.021Z,99297.78
2022-12-22T12:18:13.669Z,99289.09
2022-12-22T12:20:54.220Z,99309.16
2022-12-22T12:23:41.398Z,99303.94
2022-12-22T12:26:21.244Z,99303.97
2022-12-22T12:29:05.864Z,99307.47
2022-12-22T12:31:41.808Z,99303.09
2022-12-22T12:34:19.125Z,99306.59
2022-12-22T12:36:59.196Z,99301.38
2022-12-22T12:39:38.914Z,99312.66
2022-12-22T12:42:22.422Z,99307.44
2022-12-22T12:44:53.450Z,99308.34
2022-12-22T12:47:26.955Z,99306.59
2022-12-22T12:50:00.750Z,99306.56
2022-12-22T12:53:17.624Z,99302.16
2022-12-22T12:56:08.376Z,99306.56
2022-12-22T12:58:59.700Z,99310.03
2022-12-22T13:01:58.486Z,99301.38
2022-12-22T13:05:13.717Z,99296.13
2022-12-22T13:08:08.772Z,99297.88
2022-12-22T13:10:41.673Z,99285.69
2022-12-22T13:13:54.425Z,99290.94
2022-12-22T13:16:29.128Z,99292.69
2022-12-22T13:19:03.780Z,99292.75
2022-12-22T13:21:53.057Z,99301.44
2022-12-22T13:24:28.812Z,99301.44
2022-12-22T13:27:05.479Z,99305.84
2022-12-22T13:29:55.748Z,99308.47
2022-12-22T13:32:33.869Z,99300.72
2022-12-22T13:35:30.872Z,99296.38
2022-12-22T13:38:02.436Z,99302.53
2022-12-22T13:40:33.925Z,99304.28
2022-12-22T13:43:06.641Z,99303.38
2022-12-22T13:45:41.021Z,99303.38
2022-12-22T13:48:16.661Z,99303.25
2022-12-22T13:50:50.390Z,99308.38
2022-12-22T13:56:27.767Z,99324.78
2022-12-22T13:59:00.897Z,99330.84
2022-12-22T14:01:32.775Z,99330.84
2022-12-22T14:04:08.275Z,99321.25
2022-12-22T14:06:39.221Z,99322.13
2022-12-22T14:09:17.158Z,99324.69
2022-12-22T14:11:52.773Z,99328.19
2022-12-22T14:14:28.308Z,99325.53
2022-12-22T14:17:01.271Z,99323.81
2022-12-22T14:19:35.884Z,99326.44
2022-12-22T14:22:11.632Z,99320.34
2022-12-22T14:24:45.495Z,99315.97
2022-12-22T14:27:23.032Z,99324.69
2022-12-22T14:29:58.814Z,99332.59
2022-12-22T14:32:40.615Z,99333.47
2022-12-22T14:35:25.799Z,99325.59
2022-12-22T14:37:57.731Z,99323.88
2022-12-22T14:40:32.908Z,99323.00
2022-12-22T14:43:05.689Z,99324.69
2022-12-22T14:45:35.247Z,99314.25
2022-12-22T14:48:20.342Z,99315.97
2022-12-22T14:50:52.928Z,99314.19
2022-12-22T14:53:26.078Z,99307.22
2022-12-22T14:55:57.611Z,99306.34
2022-12-22T14:58:31.049Z,99301.97
2022-12-22T15:01:21.754Z,99299.34
2022-12-22T15:04:06.881Z,99295.00
2022-12-22T15:06:40.716Z,99293.22
2022-12-22T15:09:55.153Z,99291.44
2022-12-22T15:12:19.349Z,99289.66
2022-12-22T15:14:50.324Z,99285.28
2022-12-22T15:17:25.970Z,99288.75
2022-12-22T15:20:00.246Z,99272.19
2022-12-22T15:22:29.840Z,99265.22
2022-12-22T15:24:59.457Z,99253.00
2022-12-22T15:27:29.373Z,99252.97
2022-12-22T15:29:59.211Z,99266.88
2022-12-22T15:32:37.710Z,99257.28
2022-12-22T15:35:19.131Z,99258.16
2022-12-22T15:37:49.456Z,99247.66
2022-12-22T15:40:20.624Z,99250.25
2022-12-22T15:42:50.099Z,99244.13
2022-12-22T15:45:22.053Z,99233.69
2022-12-22T15:47:54.373Z,99238.03
2022-12-22T15:50:38.705Z,99236.28
2022-12-22T15:53:10.673Z,99231.91
2022-12-22T15:55:43.961Z,99230.16
2022-12-22T15:58:16.951Z,99222.31
2022-12-22T16:00:47.464Z,99224.03
2022-12-22T16:03:16.717Z,99223.16
2022-12-22T16:05:48.060Z,99230.97
2022-12-22T16:08:21.688Z,99218.75
2022-12-22T16:10:52.199Z,99217.84
2022-12-22T16:13:27.156Z,99211.72
2022-12-22T16:15:59.320Z,99205.56
2022-12-22T16:18:28.812Z,99206.44
2022-12-22T16:21:07.904Z,99197.69
2022-12-22T16:23:40.101Z,99201.19
2022-12-22T16:26:10.710Z,99194.19
2022-12-22T16:28:40.512Z,99188.91
2022-12-22T16:31:19.019Z,99187.13
2022-12-22T16:33:49.727Z,99178.38
2022-12-22T16:36:20.127Z,99172.28
2022-12-22T16:38:48.916Z,99178.34
2022-12-22T16:41:23.430Z,99167.00
2022-12-22T16:43:54.043Z,99169.56
2022-12-22T16:46:24.933Z,99165.22
2022-12-22T16:48:57.163Z,99152.97
2022-12-22T16:51:34.157Z,99151.25
2022-12-22T16:54:04.978Z,99148.59
2022-12-22T16:56:34.967Z,99149.47
2022-12-22T16:59:04.932Z,99147.69
2022-12-22T17:01:38.546Z,99146.78
2022-12-22T17:04:11.997Z,99142.41
2022-12-22T17:06:47.320Z,99141.53
2022-12-22T17:09:20.539Z,99143.28
2022-12-22T17:11:51.794Z,99146.72
2022-12-22T17:14:29.710Z,99135.41
2022-12-22T17:17:02.378Z,99143.22
2022-12-22T17:19:31.451Z,99143.22
2022-12-22T17:22:02.708Z,99136.25
2022-12-22T17:24:33.050Z,99131.03
2022-12-22T17:27:07.310Z,99132.75
2022-12-22T17:29:37.446Z,99131.88
2022-12-22T17:32:06.883Z,99137.09
2022-12-22T17:34:37.253Z,99128.38
2022-12-22T17:37:14.149Z,99117.06
2022-12-22T17:39:44.984Z,99124.06
2022-12-22T17:42:19.560Z,99118.84
2022-12-22T17:44:49.741Z,99113.59
2022-12-22T17:47:28.486Z,99104.88
2022-12-22T17:50:00.455Z,99092.72
2022-12-22T17:52:30.826Z,99095.34
2022-12-22T17:55:00.709Z,99100.56
2022-12-22T17:57:32.988Z,99092.72
2022-12-22T18:00:02.571Z,99086.59
2022-12-22T18:02:40.877Z,99080.50
2022-12-22T18:05:14.741Z,99085.72
2022-12-22T18:07:46.835Z,99070.94
2022-12-22T18:10:24.791Z,99064.84
2022-12-22T18:12:54.805Z,99071.84
2022-12-22T18:15:27.522Z,99065.72
2022-12-22T18:17:56.607Z,99063.13
2022-12-22T18:20:27.361Z,99062.25
2022-12-22T18:23:02.368Z,99050.94
2022-12-22T18:25:33.835Z,99048.34
2022-12-22T18:28:02.358Z,99041.41
2022-12-22T18:30:32.268Z,99044.06
2022-12-22T18:33:01.422Z,99045.75
2022-12-22T18:35:30.594Z,99045.78
2022-12-22T18:38:01.623Z,99038.84
2022-12-22T18:40:34.048Z,99043.22
2022-12-22T18:43:04.441Z,99034.50
2022-12-22T18:45:33.771Z,99024.94
2022-12-22T18:48:03.803Z,99029.31
2022-12-22T18:50:35.411Z,99015.41
2022-12-22T18:53:16.923Z,99024.09
2022-12-22T18:55:46.071Z,99011.06
2022-12-22T18:58:16.510Z,99018.03
2022-12-22T19:00:49.125Z,99014.59
2022-12-22T19:03:21.711Z,99018.94
2022-12-22T19:05:52.148Z,99005.91
2022-12-22T19:08:24.724Z,99007.63
2022-12-22T19:10:56.314Z,99009.41
2022-12-22T19:13:29.532Z,99001.56
2022-12-22T19:16:00.811Z,99004.22
2022-12-22T19:18:30.770Z,98990.25
2022-12-22T19:21:02.637Z,98990.25
2022-12-22T19:23:34.114Z,99000.69
2022-12-22T19:26:09.016Z,98995.47
2022-12-22T19:28:41.849Z,98997.25
2022-12-22T19:31:23.418Z,98996.34
2022-12-22T19:33:54.382Z,98991.13
2022-12-22T19:36:26.850Z,98983.28
2022-12-22T19:39:04.067Z,98990.25
2022-12-22T19:41:48.917Z,98979.81
2022-12-22T19:44:22.500Z,98966.75
2022-12-22T19:46:52.973Z,98984.16
2022-12-22T19:49:24.597Z,98974.59
2022-12-22T19:51:53.342Z,98978.94
2022-12-22T19:54:25.833Z,98982.41
2022-12-22T19:56:57.712Z,98984.16
2022-12-22T19:59:39.175Z,98989.41
2022-12-22T20:02:26.435Z,98978.09
2022-12-22T20:05:03.604Z,98976.34
2022-12-22T20:07:37.249Z,98972.88
2022-12-22T20:10:10.424Z,98984.19
2022-12-22T20:12:42.661Z,98979.00
2022-12-22T20:15:22.208Z,98979.88
2022-12-22T20:17:53.070Z,98982.47
2022-12-22T20:20:27.170Z,98986.84
2022-12-22T20:22:58.000Z,98985.09
2022-12-22T20:25:30.431Z,98985.13
2022-12-22T20:28:08.807Z,98985.13
2022-12-22T20:30:41.700Z,98973.81
2022-12-22T20:33:12.945Z,98966.84
2022-12-22T20:35:47.573Z,98969.44
2022-12-22T20:38:20.910Z,98968.59
2022-12-22T20:40:52.180Z,98960.75
2022-12-22T20:43:25.964Z,98953.81
2022-12-22T20:46:04.248Z,98957.28
2022-12-22T20:48:35.884Z,98962.53
2022-12-22T20:51:12.535Z,98959.06
2022-12-22T20:53:43.126Z,98963.41
2022-12-22T20:56:25.650Z,98971.28
2022-12-22T20:58:54.898Z,98986.97
2022-12-22T21:01:24.991Z,98993.94
2022-12-22T21:03:55.069Z,98985.22
2022-12-22T21:06:30.863Z,98980.91
2022-12-22T21:09:02.282Z,98976.53
2022-12-22T21:11:34.971Z,98972.19
2022-12-22T21:14:04.737Z,98987.91
2022-12-22T21:16:34.552Z,98966.13
2022-12-22T21:19:04.676Z,98971.34
2022-12-22T21:21:38.120Z,98973.13
2022-12-22T21:24:08.154Z,98971.38
2022-12-22T21:26:43.419Z,98981.81
2022-12-22T21:29:19.347Z,98978.38
2022-12-22T21:31:48.686Z,98976.66
2022-12-22T21:34:17.477Z,98979.28
2022-12-22T21:36:50.305Z,98980.16
2022-12-22T21:39:30.329Z,98972.31
2022-12-22T21:42:05.040Z,98975.81
2022-12-22T21:44:37.666Z,98977.59
2022-12-22T21:47:13.617Z,98976.72
2022-12-22T21:49:42.947Z,98972.41
2022-12-22T21:52:12.740Z,98979.34
2022-12-22T21:54:42.661Z,98973.28
2022-12-22T21:57:16.671Z,98974.16
2022-12-22T21:59:45.476Z,98969.84
2022-12-22T22:02:18.597Z,98978.56
2022-12-22T22:04:54.556Z,98981.19
2022-12-22T22:07:26.459Z,98976.00
2022-12-22T22:09:56.160Z,98973.38
2022-12-22T22:12:37.563Z,98972.53
2022-12-22T22:15:08.744Z,98974.28
2022-12-22T22:17:37.222Z,98980.41
2022-12-22T22:20:08.700Z,98976.91
2022-12-22T22:22:38.281Z,98973.47
2022-12-22T22:25:08.682Z,98969.97
2022-12-22T22:27:44.335Z,98980.41
2022-12-22T22:30:18.948Z,98982.19
2022-12-22T22:32:48.643Z,98976.97
2022-12-22T22:35:18.467Z,98970.00
2022-12-22T22:37:51.080Z,98973.47
2022-12-22T22:40:22.218Z,98983.97
2022-12-22T22:42:52.746Z,98980.47
2022-12-22T22:45:24.478Z,98979.59
2022-12-22T22:47:53.929Z,98979.63
2022-12-22T22:50:24.524Z,98977.88
2022-12-22T22:52:53.727Z,98969.19
2022-12-22T22:55:23.885Z,98973.56
2022-12-22T22:57:53.891Z,98974.44
2022-12-22T23:00:22.997Z,98980.53
2022-12-22T23:02:52.084Z,98970.06
2022-12-22T23:05:24.189Z,98960.47
2022-12-22T23:07:53.657Z,98964.84
2022-12-22T23:10:24.188Z,98972.69
2022-12-22T23:12:56.170Z,98967.50
2022-12-22T23:15:26.932Z,98964.84
2022-12-22T23:17:56.445Z,98964.84
2022-12-22T23:20:26.635Z,98960.50
2022-12-22T23:22:55.958Z,98963.09
2022-12-22T23:25:25.430Z,98965.69
2022-12-22T23:27:57.099Z,98964.81
2022-12-22T23:30:26.943Z,98962.19
2022-12-22T23:32:56.413Z,98960.44
2022-12-22T23:35:25.793Z,98963.03
2022-12-22T23:37:55.053Z,98967.41
2022-12-22T23:40:50.995Z,98972.63
2022-12-22T23:43:16.593Z,98964.78
2022-12-22T23:45:46.114Z,98966.53
2022-12-22T23:48:15.183Z,98969.16
2022-12-22T23:50:47.471Z,98971.75
2022-12-22T23:53:18.349Z,98963.03
2022-12-22T23:55:57.327Z,98980.47
2022-12-22T23:58:28.074Z,98976.13
